createdAt,value
2022-12-12T00:01:30.802Z,73.7
2022-12-12T00:07:11.868Z,73.6
2022-12-12T00:13:08.314Z,74
2022-12-12T00:18:46.659Z,74.8
2022-12-12T00:24:21.934Z,75.2
2022-12-12T00:29:57.655Z,75.2
2022-12-12T00:35:33.753Z,74.8
2022-12-12T00:41:15.626Z,74.8
2022-12-12T00:47:12.933Z,74.7
2022-12-12T00:52:45.947Z,74.5
2022-12-12T00:58:37.418Z,75.2
2022-12-12T01:04:13.514Z,75.3
2022-12-12T01:10:08.103Z,74.6
2022-12-12T01:16:02.936Z,74.9
2022-12-12T01:21:44.421Z,74.6
2022-12-12T01:27:22.259Z,74.3
2022-12-12T01:33:06.135Z,74.6
2022-12-12T01:38:45.414Z,74.8
2022-12-12T01:44:20.268Z,74.9
2022-12-12T01:50:00.014Z,75.1
2022-12-12T01:55:35.055Z,75.5
2022-12-12T02:01:10.225Z,76
2022-12-12T02:06:46.065Z,76.3
2022-12-12T02:12:21.962Z,76.4
2022-12-12T02:18:13.219Z,76.2
2022-12-12T02:23:51.226Z,76.4
2022-12-12T02:29:37.149Z,75.7
2022-12-12T02:35:25.591Z,74.9
2022-12-12T02:41:13.963Z,74.6
2022-12-12T02:47:11.574Z,74.1
2022-12-12T02:52:44.505Z,74
2022-12-12T02:58:19.489Z,73.7
2022-12-12T03:03:54.444Z,74
2022-12-12T03:09:29.815Z,73.9
2022-12-12T03:15:25.938Z,74.1
2022-12-12T03:21:05.679Z,74.3
2022-12-12T03:26:41.110Z,75.4
2022-12-12T03:32:26.156Z,75.9
2022-12-12T03:38:01.697Z,75.3
2022-12-12T03:44:16.404Z,75.2
2022-12-12T03:49:51.452Z,75.4
2022-12-12T03:55:42.829Z,75.5
2022-12-12T04:01:39.658Z,75.9
2022-12-12T04:08:02.215Z,75.9
2022-12-12T04:13:39.778Z,75.2
2022-12-12T04:19:15.825Z,74.4
2022-12-12T04:24:51.231Z,73.8
2022-12-12T04:30:26.304Z,74.2
2022-12-12T04:36:20.125Z,74.7
2022-12-12T04:42:03.982Z,75.4
2022-12-12T04:48:00.879Z,74.6
2022-12-12T04:53:39.136Z,74.8
2022-12-12T04:59:30.524Z,74.8
2022-12-12T05:05:22.331Z,74.5
2022-12-12T05:11:01.466Z,74.4
2022-12-12T05:16:41.897Z,74.1
2022-12-12T05:22:18.170Z,74
2022-12-12T05:28:14.572Z,73.5
2022-12-12T05:33:49.993Z,73.6
2022-12-12T05:40:10.486Z,74.1
2022-12-12T05:45:46.827Z,74.4
2022-12-12T05:51:23.325Z,74.2
2022-12-12T05:57:19.346Z,74.1
2022-12-12T06:03:02.894Z,73.6
2022-12-12T06:08:41.609Z,73.7
2022-12-12T06:14:35.982Z,73.9
2022-12-12T06:20:10.710Z,73.9
2022-12-12T06:25:46.593Z,73.6
2022-12-12T06:32:03.705Z,73.8
2022-12-12T06:37:39.538Z,74.3
2022-12-12T06:43:19.692Z,74.3
2022-12-12T06:49:37.750Z,74.2
2022-12-12T06:55:12.905Z,74.6
2022-12-12T07:00:50.364Z,74.7
2022-12-12T07:06:26.536Z,75.4
2022-12-12T07:12:02.125Z,75.7
2022-12-12T07:17:48.413Z,75.8
2022-12-12T07:23:23.455Z,75.2
2022-12-12T07:28:58.937Z,78.9
2022-12-12T07:34:35.297Z,81.8
2022-12-12T07:40:19.378Z,83.8
2022-12-12T07:45:54.217Z,82.4
2022-12-12T07:51:29.841Z,84.6
2022-12-12T07:57:08.346Z,83.9
2022-12-12T08:03:01.266Z,83.9
2022-12-12T08:08:54.275Z,82.7
2022-12-12T08:14:30.118Z,84.5
2022-12-12T08:20:05.615Z,84.6
2022-12-12T08:25:42.254Z,84.2
2022-12-12T08:31:17.768Z,84.6
2022-12-12T08:36:53.780Z,81.2
2022-12-12T08:42:30.835Z,82.6
2022-12-12T08:48:27.737Z,82.4
2022-12-12T08:54:00.456Z,82.2
2022-12-12T08:59:35.566Z,82.2
2022-12-12T09:05:11.411Z,82.8
2022-12-12T09:10:49.953Z,81.5
2022-12-12T09:16:26.756Z,82.4
2022-12-12T09:22:05.405Z,81.7
2022-12-12T09:27:46.400Z,84.2
2022-12-12T09:33:21.721Z,81
2022-12-12T09:38:56.905Z,81.9
2022-12-12T09:44:32.084Z,81.6
2022-12-12T09:50:07.458Z,82.2
2022-12-12T09:55:43.488Z,81.9
2022-12-12T10:01:19.031Z,82.6
2022-12-12T10:06:55.396Z,79.5
2022-12-12T10:12:30.205Z,79.8
2022-12-12T10:18:05.317Z,78
2022-12-12T10:23:41.184Z,76.6
2022-12-12T10:29:16.667Z,72.8
2022-12-12T10:34:51.679Z,71.3
2022-12-12T10:40:27.302Z,76.6
2022-12-12T10:46:03.147Z,75.5
2022-12-12T10:51:40.221Z,77.8
2022-12-12T10:57:20.919Z,76
2022-12-12T11:03:00.971Z,78.9
2022-12-12T11:08:37.849Z,79.9
2022-12-12T11:14:13.205Z,79.6
2022-12-12T11:19:49.539Z,79.2
2022-12-12T11:25:24.947Z,81
2022-12-12T11:31:03.859Z,81.5
2022-12-12T11:37:00.634Z,83.6
2022-12-12T11:42:35.777Z,84.1
2022-12-12T11:48:32.999Z,83.5
2022-12-12T11:54:05.733Z,84.7
2022-12-12T11:59:41.178Z,85
2022-12-12T12:05:17.476Z,84.9
2022-12-12T12:10:52.908Z,85.1
2022-12-12T12:16:28.202Z,86
2022-12-12T12:22:04.512Z,86.3
2022-12-12T12:27:40.695Z,87
2022-12-12T12:33:15.965Z,86.8
2022-12-12T12:38:51.885Z,86.7
2022-12-12T12:44:29.804Z,85.3
2022-12-12T12:50:04.580Z,86.5
2022-12-12T12:55:44.430Z,86.3
2022-12-12T13:01:21.165Z,86.5
2022-12-12T13:06:56.528Z,86.3
2022-12-12T13:12:32.855Z,85.6
2022-12-12T13:18:11.501Z,85.8
2022-12-12T13:23:47.911Z,86.4
2022-12-12T13:29:22.736Z,86.9
2022-12-12T13:34:58.649Z,88.1
2022-12-12T13:40:33.920Z,87.7
2022-12-12T13:46:12.783Z,87.6
2022-12-12T13:51:50.020Z,87.1
2022-12-12T13:57:25.316Z,86.1
2022-12-12T14:03:05.152Z,87.5
2022-12-12T14:08:41.375Z,86.5
2022-12-12T14:14:16.379Z,87.1
2022-12-12T14:20:01.536Z,87.5
2022-12-12T14:25:38.082Z,87.4
2022-12-12T14:31:13.544Z,87.3
2022-12-12T14:36:50.499Z,86.3
2022-12-12T14:43:22.855Z,86.7
2022-12-12T14:49:23.879Z,87.5
2022-12-12T14:54:57.289Z,87.4
2022-12-12T15:00:33.595Z,87.6
2022-12-12T15:06:17.638Z,86.1
2022-12-12T15:11:54.081Z,86.7
2022-12-12T15:17:31.657Z,88.5
2022-12-12T15:23:06.377Z,89.3
2022-12-12T15:28:42.050Z,90.1
2022-12-12T15:34:18.648Z,90.6
2022-12-12T15:39:57.858Z,91.1
2022-12-12T15:45:33.401Z,90.7
2022-12-12T15:51:25.587Z,90.7
2022-12-12T15:57:01.143Z,90.9
2022-12-12T16:02:45.924Z,91.2
2022-12-12T16:08:21.157Z,91.2
2022-12-12T16:14:07.261Z,91.2
2022-12-12T16:19:42.704Z,91.2
2022-12-12T16:25:17.744Z,91.6
2022-12-12T16:30:53.360Z,91.8
2022-12-12T16:36:29.263Z,91.6
2022-12-12T16:42:14.465Z,91.8
2022-12-12T16:48:11.680Z,92.1
2022-12-12T16:53:44.617Z,92.3
2022-12-12T16:59:20.542Z,92.4
2022-12-12T17:04:55.476Z,92.7
2022-12-12T17:10:36.030Z,92.8
2022-12-12T17:16:11.851Z,92.8
2022-12-12T17:21:47.492Z,92.1
2022-12-12T17:27:22.602Z,92.1
2022-12-12T17:33:16.525Z,92.2
2022-12-12T17:38:52.331Z,91.8
2022-12-12T17:44:27.983Z,91.8
2022-12-12T17:50:02.755Z,91.3
2022-12-12T17:56:00.886Z,92
2022-12-12T18:01:43.539Z,92.1
2022-12-12T18:07:53.391Z,92.5
2022-12-12T18:13:43.362Z,91.7
2022-12-12T18:19:27.585Z,91.8
2022-12-12T18:25:03.119Z,92.1
2022-12-12T18:30:47.208Z,92.5
2022-12-12T18:36:25.263Z,91.5
2022-12-12T18:42:00.273Z,91
2022-12-12T18:47:57.129Z,91.3
2022-12-12T18:53:30.721Z,91.3
2022-12-12T18:59:06.267Z,92.2
2022-12-12T19:04:41.994Z,91.1
2022-12-12T19:10:17.544Z,90.2
2022-12-12T19:15:52.688Z,89.6
2022-12-12T19:21:34.088Z,89
2022-12-12T19:27:09.426Z,88.6
2022-12-12T19:32:44.460Z,89.1
2022-12-12T19:38:25.001Z,89.3
2022-12-12T19:44:09.344Z,89.3
2022-12-12T19:49:44.268Z,89.1
2022-12-12T19:55:20.487Z,88.9
2022-12-12T20:00:56.074Z,88.9
2022-12-12T20:06:31.452Z,88.7
2022-12-12T20:12:07.490Z,88.5
2022-12-12T20:17:43.015Z,88.5
2022-12-12T20:23:18.439Z,89
2022-12-12T20:28:53.527Z,88.7
2022-12-12T20:34:29.515Z,89.2
2022-12-12T20:40:05.039Z,89.3
2022-12-12T20:45:40.920Z,89.6
2022-12-12T20:51:56.214Z,89.8
2022-12-12T20:57:43.140Z,90
2022-12-12T21:03:27.002Z,90.2
2022-12-12T21:09:06.339Z,90.1
2022-12-12T21:14:43.369Z,90.1
2022-12-12T21:20:18.552Z,90.2
2022-12-12T21:25:53.768Z,90.2
2022-12-12T21:31:29.319Z,90.1
2022-12-12T21:37:06.179Z,90.2
2022-12-12T21:42:41.363Z,90.3
2022-12-12T21:48:19.862Z,90.5
2022-12-12T21:54:00.271Z,90.6
2022-12-12T21:59:44.436Z,90.4
2022-12-12T22:05:19.405Z,90.4
2022-12-12T22:10:55.052Z,90.6
2022-12-12T22:16:30.864Z,90.4
2022-12-12T22:22:06.608Z,90.1
2022-12-12T22:27:41.751Z,90
2022-12-12T22:33:17.063Z,90
2022-12-12T22:38:52.253Z,89.9
2022-12-12T22:44:27.441Z,89.8
2022-12-12T22:50:02.729Z,90.1
2022-12-12T22:55:37.697Z,90.2
2022-12-12T23:01:12.659Z,90.3
2022-12-12T23:06:48.116Z,90.2
2022-12-12T23:12:43.766Z,90.4
2022-12-12T23:18:19.035Z,90.5
2022-12-12T23:23:53.939Z,90.8
2022-12-12T23:29:29.252Z,90.8
2022-12-12T23:35:08.196Z,90.9
2022-12-12T23:40:43.624Z,91.1
2022-12-12T23:46:20.129Z,91
2022-12-12T23:51:54.984Z,90.9
2022-12-12T23:57:29.933Z,90.6
